sensor_id;sensor_type;location;lat;lon;timestamp;pressure;altitude;pressure_sealevel;temperature;humidity
11413;BME280;5762;43.256;26.960;2023-07-29T00:00:11;99249.75;;;17.79;100.00
11413;BME280;5762;43.256;26.960;2023-07-29T00:02:40;99247.84;;;17.63;100.00
11413;BME280;5762;43.256;26.960;2023-07-29T00:05:08;99250.25;;;17.65;100.00
11413;BME280;5762;43.256;26.960;2023-07-29T00:07:37;99247.62;;;17.62;100.00
11413;BME280;5762;43.256;26.960;2023-07-29T00:10:06;99248.05;;;17.64;100.00
11413;BME280;5762;43.256;26.960;2023-07-29T00:12:35;99241.02;;;17.73;100.00
11413;BME280;5762;43.256;26.960;2023-07-29T00:15:03;99236.55;;;17.74;100.00
11413;BME280;5762;43.256;26.960;2023-07-29T00:17:32;99236.91;;;17.73;100.00
11413;BME280;5762;43.256;26.960;2023-07-29T00:20:01;99236.47;;;17.71;100.00
11413;BME280;5762;43.256;26.960;2023-07-29T00:22:31;99234.89;;;17.70;100.00
11413;BME280;5762;43.256;26.960;2023-07-29T00:25:00;99232.89;;;17.77;100.00
11413;BME280;5762;43.256;26.960;2023-07-29T00:27:29;99236.99;;;17.77;100.00
11413;BME280;5762;43.256;26.960;2023-07-29T00:29:58;99234.69;;;17.79;100.00
11413;BME280;5762;43.256;26.960;2023-07-29T00:32:28;99234.33;;;17.80;100.00
11413;BME280;5762;43.256;26.960;2023-07-29T00:34:56;99235.27;;;17.78;100.00
11413;BME280;5762;43.256;26.960;2023-07-29T00:37:25;99230.29;;;17.74;100.00
11413;BME280;5762;43.256;26.960;2023-07-29T00:39:53;99229.66;;;17.81;100.00
11413;BME280;5762;43.256;26.960;2023-07-29T00:42:22;99222.45;;;17.82;100.00
11413;BME280;5762;43.256;26.960;2023-07-29T00:44:51;99219.36;;;17.84;100.00
11413;BME280;5762;43.256;26.960;2023-07-29T00:47:20;99219.36;;;17.84;100.00
11413;BME280;5762;43.256;26.960;2023-07-29T00:49:49;99212.59;;;17.87;100.00
11413;BME280;5762;43.256;26.960;2023-07-29T00:52:18;99218.28;;;17.88;100.00
11413;BME280;5762;43.256;26.960;2023-07-29T00:54:46;99220.80;;;17.87;100.00
11413;BME280;5762;43.256;26.960;2023-07-29T00:57:15;99221.02;;;17.88;100.00
11413;BME280;5762;43.256;26.960;2023-07-29T00:59:44;99211.58;;;17.86;100.00
11413;BME280;5762;43.256;26.960;2023-07-29T01:02:13;99216.91;;;17.88;100.00
11413;BME280;5762;43.256;26.960;2023-07-29T01:04:42;99221.59;;;17.88;100.00
11413;BME280;5762;43.256;26.960;2023-07-29T01:10:01;99218.72;;;17.90;100.00
11413;BME280;5762;43.256;26.960;2023-07-29T01:12:42;99220.15;;;17.84;100.00
11413;BME280;5762;43.256;26.960;2023-07-29T01:17:59;99220.48;;;17.73;100.00
11413;BME280;5762;43.256;26.960;2023-07-29T01:20:23;99220.27;;;17.72;100.00
11413;BME280;5762;43.256;26.960;2023-07-29T01:22:53;99218.03;;;17.68;100.00
11413;BME280;5762;43.256;26.960;2023-07-29T01:25:22;99219.21;;;17.67;100.00
11413;BME280;5762;43.256;26.960;2023-07-29T01:27:51;99211.11;;;17.64;100.00
11413;BME280;5762;43.256;26.960;2023-07-29T01:30:20;99219.23;;;17.61;100.00
11413;BME280;5762;43.256;26.960;2023-07-29T01:37:55;99213.49;;;17.40;100.00
11413;BME280;5762;43.256;26.960;2023-07-29T01:40:26;99220.47;;;17.38;100.00
11413;BME280;5762;43.256;26.960;2023-07-29T01:42:54;99217.81;;;17.41;100.00
11413;BME280;5762;43.256;26.960;2023-07-29T01:45:23;99215.66;;;17.41;100.00
11413;BME280;5762;43.256;26.960;2023-07-29T01:47:52;99216.31;;;17.44;100.00
11413;BME280;5762;43.256;26.960;2023-07-29T01:50:21;99222.71;;;17.42;100.00
11413;BME280;5762;43.256;26.960;2023-07-29T01:52:50;99226.38;;;17.40;100.00
11413;BME280;5762;43.256;26.960;2023-07-29T01:55:19;99221.97;;;17.35;100.00
11413;BME280;5762;43.256;26.960;2023-07-29T01:57:48;99220.38;;;17.34;100.00
11413;BME280;5762;43.256;26.960;2023-07-29T02:00:18;99219.81;;;17.35;100.00
11413;BME280;5762;43.256;26.960;2023-07-29T02:02:46;99222.71;;;17.32;100.00
11413;BME280;5762;43.256;26.960;2023-07-29T02:05:14;99222.41;;;17.28;100.00
11413;BME280;5762;43.256;26.960;2023-07-29T02:07:43;99223.28;;;17.32;100.00
11413;BME280;5762;43.256;26.960;2023-07-29T02:10:12;99220.59;;;17.26;100.00
11413;BME280;5762;43.256;26.960;2023-07-29T02:12:41;99229.06;;;17.21;100.00
11413;BME280;5762;43.256;26.960;2023-07-29T02:15:10;99231.94;;;17.18;100.00
11413;BME280;5762;43.256;26.960;2023-07-29T02:17:38;99230.30;;;17.07;100.00
11413;BME280;5762;43.256;26.960;2023-07-29T02:20:07;99230.22;;;17.04;100.00
11413;BME280;5762;43.256;26.960;2023-07-29T02:22:37;99236.73;;;16.99;100.00
11413;BME280;5762;43.256;26.960;2023-07-29T02:25:06;99245.52;;;16.83;100.00
11413;BME280;5762;43.256;26.960;2023-07-29T02:27:35;99246.22;;;16.58;100.00
11413;BME280;5762;43.256;26.960;2023-07-29T02:30:04;99246.72;;;16.48;100.00
11413;BME280;5762;43.256;26.960;2023-07-29T02:32:33;99245.13;;;16.47;100.00
11413;BME280;5762;43.256;26.960;2023-07-29T02:35:02;99243.89;;;16.45;100.00
11413;BME280;5762;43.256;26.960;2023-07-29T02:37:33;99250.40;;;16.40;100.00
11413;BME280;5762;43.256;26.960;2023-07-29T02:40:02;99259.04;;;16.42;100.00
11413;BME280;5762;43.256;26.960;2023-07-29T02:42:31;99258.56;;;16.46;100.00
11413;BME280;5762;43.256;26.960;2023-07-29T02:45:00;99265.77;;;16.38;100.00
11413;BME280;5762;43.256;26.960;2023-07-29T02:47:29;99268.52;;;16.32;100.00
11413;BME280;5762;43.256;26.960;2023-07-29T02:49:58;99264.72;;;16.21;100.00
11413;BME280;5762;43.256;26.960;2023-07-29T02:52:27;99270.56;;;16.01;100.00
11413;BME280;5762;43.256;26.960;2023-07-29T02:54:55;99281.27;;;15.94;100.00
11413;BME280;5762;43.256;26.960;2023-07-29T02:57:24;99281.33;;;15.70;100.00
11413;BME280;5762;43.256;26.960;2023-07-29T02:59:53;99284.28;;;15.40;100.00
11413;BME280;5762;43.256;26.960;2023-07-29T03:02:22;99285.99;;;15.21;100.00
11413;BME280;5762;43.256;26.960;2023-07-29T03:04:50;99295.27;;;15.01;100.00
11413;BME280;5762;43.256;26.960;2023-07-29T03:07:19;99305.59;;;14.90;100.00
11413;BME280;5762;43.256;26.960;2023-07-29T03:09:47;99323.45;;;14.66;100.00
11413;BME280;5762;43.256;26.960;2023-07-29T03:12:16;99334.75;;;14.50;100.00
11413;BME280;5762;43.256;26.960;2023-07-29T03:14:47;99343.84;;;14.39;100.00
11413;BME280;5762;43.256;26.960;2023-07-29T03:17:14;99347.06;;;14.41;100.00
11413;BME280;5762;43.256;26.960;2023-07-29T03:19:43;99355.06;;;14.38;100.00
11413;BME280;5762;43.256;26.960;2023-07-29T03:22:11;99353.71;;;14.38;100.00
11413;BME280;5762;43.256;26.960;2023-07-29T03:24:40;99359.16;;;14.38;100.00
11413;BME280;5762;43.256;26.960;2023-07-29T03:27:09;99356.43;;;14.38;100.00
11413;BME280;5762;43.256;26.960;2023-07-29T03:29:38;99365.23;;;14.44;100.00
11413;BME280;5762;43.256;26.960;2023-07-29T03:32:07;99370.14;;;14.50;100.00
11413;BME280;5762;43.256;26.960;2023-07-29T03:34:35;99376.29;;;14.53;100.00
11413;BME280;5762;43.256;26.960;2023-07-29T03:37:04;99378.78;;;14.58;100.00
11413;BME280;5762;43.256;26.960;2023-07-29T03:39:33;99381.34;;;14.69;100.00
11413;BME280;5762;43.256;26.960;2023-07-29T03:42:02;99382.73;;;14.75;100.00
11413;BME280;5762;43.256;26.960;2023-07-29T03:44:30;99384.37;;;14.89;100.00
11413;BME280;5762;43.256;26.960;2023-07-29T03:47:00;99382.45;;;14.95;100.00
11413;BME280;5762;43.256;26.960;2023-07-29T03:49:29;99379.18;;;15.02;100.00
11413;BME280;5762;43.256;26.960;2023-07-29T03:51:57;99381.03;;;15.10;100.00
11413;BME280;5762;43.256;26.960;2023-07-29T03:54:26;99382.08;;;15.18;100.00
11413;BME280;5762;43.256;26.960;2023-07-29T03:56:55;99385.14;;;15.28;100.00
11413;BME280;5762;43.256;26.960;2023-07-29T03:59:24;99381.64;;;15.34;100.00
11413;BME280;5762;43.256;26.960;2023-07-29T04:01:53;99374.97;;;15.50;100.00
11413;BME280;5762;43.256;26.960;2023-07-29T04:04:21;99375.23;;;15.57;100.00
11413;BME280;5762;43.256;26.960;2023-07-29T04:06:50;99368.63;;;15.70;100.00
11413;BME280;5762;43.256;26.960;2023-07-29T04:09:19;99372.05;;;15.85;100.00
11413;BME280;5762;43.256;26.960;2023-07-29T04:11:48;99377.02;;;16.01;100.00
11413;BME280;5762;43.256;26.960;2023-07-29T04:14:17;99374.50;;;16.21;100.00
11413;BME280;5762;43.256;26.960;2023-07-29T04:16:45;99366.83;;;16.32;100.00
11413;BME280;5762;43.256;26.960;2023-07-29T04:19:15;99367.60;;;16.45;100.00
11413;BME280;5762;43.256;26.960;2023-07-29T04:21:43;99365.88;;;16.53;100.00
11413;BME280;5762;43.256;26.960;2023-07-29T04:24:12;99375.06;;;16.66;100.00
11413;BME280;5762;43.256;26.960;2023-07-29T04:26:41;99372.04;;;16.84;100.00
11413;BME280;5762;43.256;26.960;2023-07-29T04:29:09;99374.89;;;17.03;100.00
11413;BME280;5762;43.256;26.960;2023-07-29T04:31:37;99375.86;;;17.17;100.00
11413;BME280;5762;43.256;26.960;2023-07-29T04:34:06;99375.81;;;17.38;100.00
11413;BME280;5762;43.256;26.960;2023-07-29T04:36:35;99370.54;;;17.61;100.00
11413;BME280;5762;43.256;26.960;2023-07-29T04:39:04;99370.19;;;17.79;100.00
11413;BME280;5762;43.256;26.960;2023-07-29T04:41:32;99365.06;;;17.77;100.00
11413;BME280;5762;43.256;26.960;2023-07-29T04:44:01;99362.24;;;17.73;100.00
11413;BME280;5762;43.256;26.960;2023-07-29T04:46:30;99358.13;;;17.89;100.00
11413;BME280;5762;43.256;26.960;2023-07-29T04:48:59;99360.32;;;17.99;100.00
11413;BME280;5762;43.256;26.960;2023-07-29T04:51:29;99358.52;;;18.07;100.00
11413;BME280;5762;43.256;26.960;2023-07-29T04:54:01;99360.67;;;18.07;100.00
11413;BME280;5762;43.256;26.960;2023-07-29T04:56:30;99361.64;;;18.15;100.00
11413;BME280;5762;43.256;26.960;2023-07-29T04:58:59;99370.11;;;18.35;100.00
11413;BME280;5762;43.256;26.960;2023-07-29T05:01:27;99370.97;;;18.49;100.00
11413;BME280;5762;43.256;26.960;2023-07-29T05:03:55;99375.02;;;18.55;100.00
11413;BME280;5762;43.256;26.960;2023-07-29T05:06:24;99376.64;;;18.66;100.00
11413;BME280;5762;43.256;26.960;2023-07-29T05:08:53;99376.55;;;18.72;100.00
11413;BME280;5762;43.256;26.960;2023-07-29T05:11:22;99379.58;;;18.77;100.00
11413;BME280;5762;43.256;26.960;2023-07-29T05:13:51;99376.11;;;18.99;100.00
11413;BME280;5762;43.256;26.960;2023-07-29T05:16:20;99381.47;;;19.24;100.00
11413;BME280;5762;43.256;26.960;2023-07-29T05:18:49;99374.53;;;19.30;100.00
11413;BME280;5762;43.256;26.960;2023-07-29T05:21:18;99375.13;;;19.53;100.00
11413;BME280;5762;43.256;26.960;2023-07-29T05:23:47;99364.38;;;19.67;100.00
11413;BME280;5762;43.256;26.960;2023-07-29T05:26:15;99371.36;;;19.87;100.00
11413;BME280;5762;43.256;26.960;2023-07-29T05:28:44;99369.52;;;20.08;100.00
11413;BME280;5762;43.256;26.960;2023-07-29T05:31:13;99369.34;;;20.24;100.00
11413;BME280;5762;43.256;26.960;2023-07-29T05:33:42;99381.83;;;20.44;100.00
11413;BME280;5762;43.256;26.960;2023-07-29T05:36:11;99397.38;;;20.63;100.00
11413;BME280;5762;43.256;26.960;2023-07-29T05:38:40;99412.97;;;20.68;100.00
11413;BME280;5762;43.256;26.960;2023-07-29T05:41:09;99423.42;;;20.89;100.00
11413;BME280;5762;43.256;26.960;2023-07-29T05:43:38;99422.06;;;21.06;100.00
11413;BME280;5762;43.256;26.960;2023-07-29T05:46:07;99404.75;;;21.22;100.00
11413;BME280;5762;43.256;26.960;2023-07-29T05:48:36;99384.36;;;21.27;100.00
11413;BME280;5762;43.256;26.960;2023-07-29T05:51:05;99369.44;;;21.52;100.00
11413;BME280;5762;43.256;26.960;2023-07-29T05:53:34;99365.84;;;21.68;100.00
11413;BME280;5762;43.256;26.960;2023-07-29T05:56:02;99352.59;;;21.60;100.00
11413;BME280;5762;43.256;26.960;2023-07-29T05:58:31;99350.22;;;21.59;100.00
11413;BME280;5762;43.256;26.960;2023-07-29T06:00:59;99342.52;;;21.55;100.00
11413;BME280;5762;43.256;26.960;2023-07-29T06:03:28;99335.75;;;21.69;100.00
11413;BME280;5762;43.256;26.960;2023-07-29T06:05:56;99335.09;;;21.90;100.00
11413;BME280;5762;43.256;26.960;2023-07-29T06:08:25;99324.12;;;21.97;100.00
11413;BME280;5762;43.256;26.960;2023-07-29T06:10:55;99323.66;;;22.12;100.00
11413;BME280;5762;43.256;26.960;2023-07-29T06:13:24;99316.81;;;22.26;100.00
11413;BME280;5762;43.256;26.960;2023-07-29T06:15:52;99321.24;;;22.45;100.00
11413;BME280;5762;43.256;26.960;2023-07-29T06:18:21;99323.45;;;22.59;100.00
11413;BME280;5762;43.256;26.960;2023-07-29T06:20:50;99320.95;;;22.74;100.00
11413;BME280;5762;43.256;26.960;2023-07-29T06:23:19;99319.61;;;22.89;100.00
11413;BME280;5762;43.256;26.960;2023-07-29T06:25:48;99328.91;;;22.97;100.00
11413;BME280;5762;43.256;26.960;2023-07-29T06:28:17;99332.09;;;23.10;100.00
11413;BME280;5762;43.256;26.960;2023-07-29T06:30:46;99323.02;;;23.27;100.00
11413;BME280;5762;43.256;26.960;2023-07-29T06:33:15;99321.07;;;23.49;100.00
11413;BME280;5762;43.256;26.960;2023-07-29T06:35:43;99325.61;;;23.65;100.00
11413;BME280;5762;43.256;26.960;2023-07-29T06:38:12;99332.91;;;23.71;100.00
11413;BME280;5762;43.256;26.960;2023-07-29T06:40:41;99328.17;;;23.71;100.00
11413;BME280;5762;43.256;26.960;2023-07-29T06:43:10;99330.89;;;23.93;100.00
11413;BME280;5762;43.256;26.960;2023-07-29T06:45:39;99333.24;;;24.09;100.00
11413;BME280;5762;43.256;26.960;2023-07-29T06:48:08;99336.33;;;24.39;100.00
11413;BME280;5762;43.256;26.960;2023-07-29T06:50:37;99326.99;;;24.55;100.00
11413;BME280;5762;43.256;26.960;2023-07-29T06:53:06;99334.81;;;24.67;100.00
11413;BME280;5762;43.256;26.960;2023-07-29T06:55:34;99334.17;;;24.79;100.00
11413;BME280;5762;43.256;26.960;2023-07-29T06:58:03;99337.14;;;24.80;100.00
11413;BME280;5762;43.256;26.960;2023-07-29T07:00:32;99341.09;;;24.79;100.00
11413;BME280;5762;43.256;26.960;2023-07-29T07:03:01;99328.84;;;24.80;100.00
11413;BME280;5762;43.256;26.960;2023-07-29T07:05:30;99329.16;;;24.92;100.00
11413;BME280;5762;43.256;26.960;2023-07-29T07:07:59;99340.97;;;25.03;100.00
11413;BME280;5762;43.256;26.960;2023-07-29T07:10:28;99343.09;;;25.15;100.00
11413;BME280;5762;43.256;26.960;2023-07-29T07:12:56;99349.54;;;25.27;100.00
11413;BME280;5762;43.256;26.960;2023-07-29T07:15:25;99347.79;;;25.47;100.00
11413;BME280;5762;43.256;26.960;2023-07-29T07:17:53;99350.08;;;25.59;100.00
11413;BME280;5762;43.256;26.960;2023-07-29T07:20:22;99349.34;;;25.52;100.00
11413;BME280;5762;43.256;26.960;2023-07-29T07:22:51;99348.34;;;25.54;100.00
11413;BME280;5762;43.256;26.960;2023-07-29T07:25:19;99351.81;;;25.65;100.00
11413;BME280;5762;43.256;26.960;2023-07-29T07:27:47;99355.16;;;25.90;100.00
11413;BME280;5762;43.256;26.960;2023-07-29T07:30:16;99358.19;;;26.03;100.00
11413;BME280;5762;43.256;26.960;2023-07-29T07:32:45;99369.64;;;26.27;100.00
11413;BME280;5762;43.256;26.960;2023-07-29T07:35:14;99363.91;;;26.45;100.00
11413;BME280;5762;43.256;26.960;2023-07-29T07:37:43;99374.33;;;26.53;100.00
11413;BME280;5762;43.256;26.960;2023-07-29T07:40:11;99376.04;;;26.74;100.00
11413;BME280;5762;43.256;26.960;2023-07-29T07:42:39;99379.20;;;27.06;100.00
11413;BME280;5762;43.256;26.960;2023-07-29T07:45:08;99375.72;;;27.29;100.00
11413;BME280;5762;43.256;26.960;2023-07-29T07:47:37;99381.69;;;27.39;100.00
11413;BME280;5762;43.256;26.960;2023-07-29T07:50:06;99385.88;;;27.66;100.00
11413;BME280;5762;43.256;26.960;2023-07-29T07:52:35;99390.64;;;27.77;100.00
11413;BME280;5762;43.256;26.960;2023-07-29T07:55:04;99390.77;;;28.05;100.00
11413;BME280;5762;43.256;26.960;2023-07-29T07:57:34;99393.59;;;28.37;100.00
11413;BME280;5762;43.256;26.960;2023-07-29T08:00:03;99392.15;;;28.48;100.00
11413;BME280;5762;43.256;26.960;2023-07-29T08:02:32;99402.30;;;28.58;100.00
11413;BME280;5762;43.256;26.960;2023-07-29T08:05:01;99395.59;;;28.76;100.00
11413;BME280;5762;43.256;26.960;2023-07-29T08:07:29;99391.52;;;29.00;100.00
11413;BME280;5762;43.256;26.960;2023-07-29T08:09:58;99396.22;;;29.11;100.00
11413;BME280;5762;43.256;26.960;2023-07-29T08:12:27;99393.73;;;29.25;100.00
11413;BME280;5762;43.256;26.960;2023-07-29T08:14:55;99382.88;;;29.47;100.00
11413;BME280;5762;43.256;26.960;2023-07-29T08:17:24;99373.83;;;29.59;100.00
11413;BME280;5762;43.256;26.960;2023-07-29T08:19:52;99379.24;;;29.74;100.00
11413;BME280;5762;43.256;26.960;2023-07-29T08:22:21;99375.83;;;29.99;100.00
11413;BME280;5762;43.256;26.960;2023-07-29T08:24:50;99369.66;;;30.20;100.00
11413;BME280;5762;43.256;26.960;2023-07-29T08:27:19;99371.83;;;30.50;100.00
11413;BME280;5762;43.256;26.960;2023-07-29T08:29:48;99368.42;;;30.58;100.00
11413;BME280;5762;43.256;26.960;2023-07-29T08:32:17;99367.81;;;30.92;100.00
11413;BME280;5762;43.256;26.960;2023-07-29T08:34:46;99359.62;;;31.06;100.00
11413;BME280;5762;43.256;26.960;2023-07-29T08:37:14;99361.19;;;31.07;100.00
11413;BME280;5762;43.256;26.960;2023-07-29T08:39:42;99363.69;;;31.18;100.00
11413;BME280;5762;43.256;26.960;2023-07-29T08:42:12;99364.25;;;31.05;100.00
11413;BME280;5762;43.256;26.960;2023-07-29T08:44:42;99363.30;;;31.03;100.00
11413;BME280;5762;43.256;26.960;2023-07-29T08:47:11;99372.24;;;31.19;100.00
11413;BME280;5762;43.256;26.960;2023-07-29T08:49:39;99361.42;;;31.38;100.00
11413;BME280;5762;43.256;26.960;2023-07-29T08:52:09;99370.27;;;31.49;100.00
11413;BME280;5762;43.256;26.960;2023-07-29T08:54:38;99363.17;;;31.57;100.00
11413;BME280;5762;43.256;26.960;2023-07-29T08:57:06;99363.38;;;31.46;100.00
11413;BME280;5762;43.256;26.960;2023-07-29T08:59:35;99354.84;;;31.62;100.00
11413;BME280;5762;43.256;26.960;2023-07-29T09:02:04;99353.67;;;31.55;100.00
11413;BME280;5762;43.256;26.960;2023-07-29T09:04:33;99342.86;;;31.91;100.00
11413;BME280;5762;43.256;26.960;2023-07-29T09:07:02;99346.90;;;32.08;100.00
11413;BME280;5762;43.256;26.960;2023-07-29T09:09:31;99346.61;;;32.10;100.00
11413;BME280;5762;43.256;26.960;2023-07-29T09:11:59;99343.69;;;32.53;100.00
11413;BME280;5762;43.256;26.960;2023-07-29T09:14:27;99341.05;;;32.58;100.00
11413;BME280;5762;43.256;26.960;2023-07-29T09:16:56;99331.01;;;32.70;100.00
11413;BME280;5762;43.256;26.960;2023-07-29T09:19:26;99334.38;;;32.82;100.00
11413;BME280;5762;43.256;26.960;2023-07-29T09:21:54;99326.95;;;32.97;100.00
11413;BME280;5762;43.256;26.960;2023-07-29T09:24:23;99325.22;;;33.26;100.00
11413;BME280;5762;43.256;26.960;2023-07-29T09:26:52;99326.30;;;33.24;99.59
11413;BME280;5762;43.256;26.960;2023-07-29T09:29:22;99320.52;;;33.19;100.00
11413;BME280;5762;43.256;26.960;2023-07-29T09:31:50;99318.71;;;33.39;97.71
11413;BME280;5762;43.256;26.960;2023-07-29T09:34:19;99318.89;;;33.44;95.46
11413;BME280;5762;43.256;26.960;2023-07-29T09:36:50;99317.66;;;33.54;98.85
11413;BME280;5762;43.256;26.960;2023-07-29T09:39:17;99317.84;;;33.78;94.15
11413;BME280;5762;43.256;26.960;2023-07-29T09:41:50;99315.19;;;33.61;94.78
11413;BME280;5762;43.256;26.960;2023-07-29T09:44:19;99306.78;;;33.98;99.27
11413;BME280;5762;43.256;26.960;2023-07-29T09:46:48;99304.16;;;33.94;94.70
11413;BME280;5762;43.256;26.960;2023-07-29T09:49:17;99303.67;;;34.05;86.58
11413;BME280;5762;43.256;26.960;2023-07-29T09:51:45;99309.13;;;33.99;88.33
11413;BME280;5762;43.256;26.960;2023-07-29T09:54:14;99304.13;;;33.99;91.19
11413;BME280;5762;43.256;26.960;2023-07-29T09:56:44;99308.67;;;33.82;92.53
11413;BME280;5762;43.256;26.960;2023-07-29T09:59:13;99301.61;;;33.55;93.61
11413;BME280;5762;43.256;26.960;2023-07-29T10:01:41;99307.98;;;33.51;89.87
11413;BME280;5762;43.256;26.960;2023-07-29T10:04:10;99297.41;;;33.78;86.65
11413;BME280;5762;43.256;26.960;2023-07-29T10:06:39;99301.30;;;33.76;86.78
11413;BME280;5762;43.256;26.960;2023-07-29T10:09:11;99304.60;;;34.02;90.00
11413;BME280;5762;43.256;26.960;2023-07-29T10:11:39;99303.98;;;34.02;80.85
11413;BME280;5762;43.256;26.960;2023-07-29T10:14:08;99302.56;;;33.61;88.29
11413;BME280;5762;43.256;26.960;2023-07-29T10:16:37;99296.42;;;33.40;85.76
11413;BME280;5762;43.256;26.960;2023-07-29T10:19:06;99300.46;;;33.34;89.47
11413;BME280;5762;43.256;26.960;2023-07-29T10:21:36;99291.28;;;33.38;84.91
11413;BME280;5762;43.256;26.960;2023-07-29T10:24:06;99295.44;;;33.24;87.11
11413;BME280;5762;43.256;26.960;2023-07-29T10:26:34;99288.30;;;33.33;89.88
11413;BME280;5762;43.256;26.960;2023-07-29T10:29:04;99276.50;;;33.51;87.33
11413;BME280;5762;43.256;26.960;2023-07-29T10:31:34;99277.44;;;33.53;86.03
11413;BME280;5762;43.256;26.960;2023-07-29T10:34:03;99276.55;;;33.88;82.29
11413;BME280;5762;43.256;26.960;2023-07-29T10:36:33;99270.77;;;33.82;91.85
11413;BME280;5762;43.256;26.960;2023-07-29T10:39:02;99282.73;;;33.69;82.16
11413;BME280;5762;43.256;26.960;2023-07-29T10:47:10;99263.59;;;33.95;79.75
11413;BME280;5762;43.256;26.960;2023-07-29T10:49:34;99252.05;;;33.93;80.45
11413;BME280;5762;43.256;26.960;2023-07-29T10:52:02;99250.39;;;34.51;78.25
11413;BME280;5762;43.256;26.960;2023-07-29T10:54:30;99253.91;;;34.66;75.93
11413;BME280;5762;43.256;26.960;2023-07-29T10:57:00;99245.35;;;34.65;74.94
11413;BME280;5762;43.256;26.960;2023-07-29T10:59:32;99245.55;;;34.52;78.77
11413;BME280;5762;43.256;26.960;2023-07-29T11:02:01;99245.94;;;35.06;77.83
11413;BME280;5762;43.256;26.960;2023-07-29T11:04:30;99242.97;;;35.57;75.38
11413;BME280;5762;43.256;26.960;2023-07-29T11:09:41;99247.09;;;35.00;72.49
11413;BME280;5762;43.256;26.960;2023-07-29T11:14:40;99247.31;;;34.31;70.55
11413;BME280;5762;43.256;26.960;2023-07-29T11:17:09;99241.47;;;34.57;74.06
11413;BME280;5762;43.256;26.960;2023-07-29T11:19:37;99243.69;;;34.91;68.02
11413;BME280;5762;43.256;26.960;2023-07-29T11:22:06;99239.66;;;34.78;67.58
11413;BME280;5762;43.256;26.960;2023-07-29T11:24:35;99240.00;;;35.04;66.58
11413;BME280;5762;43.256;26.960;2023-07-29T11:27:04;99236.84;;;35.11;68.00
11413;BME280;5762;43.256;26.960;2023-07-29T11:29:32;99227.16;;;34.84;69.37
11413;BME280;5762;43.256;26.960;2023-07-29T11:32:00;99238.05;;;35.19;67.38
11413;BME280;5762;43.256;26.960;2023-07-29T11:34:31;99229.97;;;35.12;67.72
11413;BME280;5762;43.256;26.960;2023-07-29T11:37:00;99217.78;;;35.58;68.75
11413;BME280;5762;43.256;26.960;2023-07-29T11:39:29;99217.34;;;35.70;62.36
11413;BME280;5762;43.256;26.960;2023-07-29T11:41:58;99220.64;;;35.02;68.95
11413;BME280;5762;43.256;26.960;2023-07-29T11:44:26;99222.12;;;35.64;64.36
11413;BME280;5762;43.256;26.960;2023-07-29T11:46:55;99215.84;;;35.45;66.00
11413;BME280;5762;43.256;26.960;2023-07-29T11:49:24;99219.16;;;35.15;65.21
11413;BME280;5762;43.256;26.960;2023-07-29T11:51:53;99220.09;;;35.17;63.62
11413;BME280;5762;43.256;26.960;2023-07-29T11:54:22;99214.84;;;35.05;67.62
11413;BME280;5762;43.256;26.960;2023-07-29T11:56:51;99214.19;;;35.10;66.70
11413;BME280;5762;43.256;26.960;2023-07-29T11:59:19;99208.59;;;35.06;65.00
11413;BME280;5762;43.256;26.960;2023-07-29T12:01:47;99202.03;;;35.52;69.82
11413;BME280;5762;43.256;26.960;2023-07-29T12:04:16;99203.98;;;35.41;63.30
11413;BME280;5762;43.256;26.960;2023-07-29T12:06:45;99201.94;;;36.00;60.46
11413;BME280;5762;43.256;26.960;2023-07-29T12:09:14;99202.64;;;36.05;61.10
11413;BME280;5762;43.256;26.960;2023-07-29T12:11:43;99195.94;;;36.46;59.02
11413;BME280;5762;43.256;26.960;2023-07-29T12:14:12;99193.03;;;35.82;60.70
11413;BME280;5762;43.256;26.960;2023-07-29T12:16:42;99193.80;;;36.31;63.70
11413;BME280;5762;43.256;26.960;2023-07-29T12:19:13;99188.55;;;36.49;57.24
11413;BME280;5762;43.256;26.960;2023-07-29T12:21:42;99195.69;;;36.30;56.74
11413;BME280;5762;43.256;26.960;2023-07-29T12:24:14;99190.59;;;36.48;57.98
11413;BME280;5762;43.256;26.960;2023-07-29T12:26:42;99188.61;;;36.44;58.35
11413;BME280;5762;43.256;26.960;2023-07-29T12:29:13;99188.67;;;36.65;61.39
11413;BME280;5762;43.256;26.960;2023-07-29T12:31:41;99191.55;;;36.35;56.34
11413;BME280;5762;43.256;26.960;2023-07-29T12:34:09;99196.05;;;36.22;57.98
11413;BME280;5762;43.256;26.960;2023-07-29T12:36:45;99192.41;;;35.63;60.85
11413;BME280;5762;43.256;26.960;2023-07-29T12:39:17;99189.52;;;35.53;61.92
11413;BME280;5762;43.256;26.960;2023-07-29T12:41:50;99189.54;;;35.87;62.64
11413;BME280;5762;43.256;26.960;2023-07-29T12:44:19;99191.52;;;35.72;59.54
11413;BME280;5762;43.256;26.960;2023-07-29T12:46:48;99186.89;;;35.02;62.85
11413;BME280;5762;43.256;26.960;2023-07-29T12:49:17;99189.84;;;34.74;62.69
11413;BME280;5762;43.256;26.960;2023-07-29T12:51:46;99186.89;;;35.02;62.44
11413;BME280;5762;43.256;26.960;2023-07-29T12:54:14;99173.80;;;35.80;60.03
11413;BME280;5762;43.256;26.960;2023-07-29T12:56:43;99174.25;;;36.52;57.18
11413;BME280;5762;43.256;26.960;2023-07-29T12:59:11;99177.11;;;36.98;57.39
11413;BME280;5762;43.256;26.960;2023-07-29T13:01:40;99177.25;;;36.64;55.09
11413;BME280;5762;43.256;26.960;2023-07-29T13:04:09;99172.02;;;36.91;55.18
11413;BME280;5762;43.256;26.960;2023-07-29T13:06:38;99166.34;;;36.36;55.16
11413;BME280;5762;43.256;26.960;2023-07-29T13:09:07;99168.67;;;36.73;56.71
11413;BME280;5762;43.256;26.960;2023-07-29T13:11:35;99174.78;;;36.96;55.23
11413;BME280;5762;43.256;26.960;2023-07-29T13:14:04;99169.28;;;36.97;54.76
11413;BME280;5762;43.256;26.960;2023-07-29T13:16:33;99177.37;;;36.89;53.31
11413;BME280;5762;43.256;26.960;2023-07-29T13:19:02;99164.56;;;36.64;52.11
11413;BME280;5762;43.256;26.960;2023-07-29T13:21:31;99173.46;;;37.22;50.52